Noril'sk, Russia
Current Conditions -  °F | °C
As of 9:00 AM on Sunday 23 Nov 2014 (Local Time) from USNN Reporting Station
Clear Clear  
Wind Chill: -42°   Ceiling: Unl
Heat Index: -27°   Visibility: 6mi
Dew Point: -36°   Wind: 4mph
Humidity: 62%   Direction: NA
Pressure: 29.94"   Gusts: NA
Location:  69.32°N, 88.2°E
Report Text: USNN 230200Z VRB02MPS CAVOK M33/M38 Q1014 NOSIG RMK QFE7552131//58
Loading
Personal Weather Stations






























Interactive Weather Map New forecast layout! Learn more

10-Day Weather Forecast

Advertisements
Track Severe Weather on mobile